• Join FlightAware (Why Join?)
  • Login
  • US Flag 
09:45AM EDT


 

Airport Tracker/Info


-or-


 

Live Flight TrackerFlight Track Log ✈ N498QS ✈ 05-May-2013 ✈ KLGB - KSAN

Flight Track Log - Related Links

Times and Time Zones

All times are in EDT time to prevent confusion due to time zone crossing. See the N498QS flight status page for this flight to view local times or setup timezone preferences in your user account.

Time Position Orientation Groundspeed Altitude Reporting Facility
EDT Latitude Longitude Course Direction KTS MPH feet Rate Location/Type
03:19PM 33.7833 -118.1000 143° Southeast 180 207 3,000  Level Southern California TRACON
03:20PM 33.7333 -118.1167 195° South 232 267 6,100 3,180 Climbing Southern California TRACON
03:21PM 33.6667 -118.1500 203° Southwest 268 308 9,100 2,280 Climbing Southern California TRACON
03:22PM 33.6131 -118.0703 129° Southeast 287 330 11,000 840 Climbing Los Angeles Center
03:23PM 33.5664 -117.9653 118° Southeast 329 379 11,000  Level Los Angeles Center
03:24PM 33.5486 -117.9079 143° Southeast  Level FlightAware Approximate
03:24PM 33.5167 -117.8667 121° Southeast 346 398 11,000  Level Southern California TRACON
03:25PM 33.4333 -117.7833 140° Southeast 346 398 11,000  Level Southern California TRACON
03:26PM 33.3667 -117.7000 134° Southeast 349 402 11,000  Level Southern California TRACON
03:27PM 33.3000 -117.6167 134° Southeast 348 400 11,000  Level Southern California TRACON
03:28PM 33.2167 -117.5500 146° Southeast 347 399 11,000  Level Southern California TRACON
03:29PM 33.1333 -117.5000 153° Southeast 353 406 11,000  Level Southern California TRACON
03:30PM 33.0667 -117.4333 140° Southeast 350 403 11,000 60 Level Southern California TRACON
03:30PM 33.0308 -117.4106 152° Southeast 349 402 11,100 -240 Climbing Los Angeles Center
03:31PM 32.9833 -117.3667 142° Southeast 341 392 10,800 -900 Descending Southern California TRACON
03:32PM 32.9167 -117.3000 140° Southeast 299 344 9,700 -1,200 Descending Southern California TRACON
03:33PM 32.8833 -117.2167 115° Southeast 272 313 8,400 -1,260 Descending Southern California TRACON
03:33PM 32.8603 -117.1803 127° Southeast 286 329 7,600 -960 Descending Los Angeles Center
03:34PM 32.8303 -117.1117 117° Southeast 259 298 6,800 -1,140 Descending Los Angeles Center
03:35PM 32.8167 -117.0833 120° Southeast 224 258 6,100 -660 Descending Southern California TRACON
03:36PM 32.7833 -117.0167 121° Southeast 207 238 6,000 -60 Descending Southern California TRACON
03:37PM 32.7667 -116.9500 107° East 214 246 6,000 -180 Level Southern California TRACON
03:38PM 32.7667 -116.9000 90° East 198 228 5,700 -540 Descending Southern California TRACON
03:39PM 32.7167 -116.8833 164° South 191 220 5,000 -900 Descending Southern California TRACON
03:40PM 32.7000 -116.9500 253° West 172 198 3,900 -960 Descending Southern California TRACON
03:41PM 32.6833 -117.0000 248° West 186 214 3,000 -1,020 Descending Southern California TRACON
03:42PM 32.7000 -117.0667 287° West 193 222 1,900 -900 Descending Southern California TRACON
03:43PM 32.7167 -117.1167 292° West 167 192 1,300 -780 Descending Southern California TRACON
03:44PM 32.7333 -117.1500 301° West 143 165 500 -900 Descending Southern California TRACON